Terminal Aerodrome Forecast
Issued by NWS Lake Charles, LA

Home | Current Version | Previous Version | Text Only | Print | Product List | Glossary On
Versions: 1 2 3 4 5 6 7 8 9 10 11 12 13 14 15 16 17 18 19
000
FTUS44 KLCH 201900 AAA
TAFLCH
TAF AMD
KLCH 201930Z 2020/2118 19007KT P6SM VCTS SCT030CB SCT050 SCT200
      TEMPO 2020/2022 VRB15G25KT 2SM TSRA BKN030CB OVC050
     FM202300 17003KT P6SM SCT250
     FM211400 18007KT P6SM SCT030 SCT170=

USA.gov is the U.S. government's official web portal to all federal, state and local government web resources and services.